Avoca, Wisconsin
Current Conditions -  °F | °C
As of 12:56 PM on Friday 24 Oct 2014 (Local Time) from KLNR Reporting Station
Overcast Overcast  
Wind Chill: 62°   Ceiling: 1300
Heat Index: 62°   Visibility: 10mi
Dew Point: 52°   Wind: 7mph
Humidity: 70%   Direction: 190°S
Pressure: 29.99"   Gusts: NA
Location:  43.18°N, 90.32°W
Report Text: KLNR 241756Z AUTO 19006KT 10SM OVC013 17/11 A2999 RMK AO2 SLP152 T01670111 10167 20111 58013
Loading
Personal Weather Stations






























Interactive Weather Map New forecast layout! Learn more

10-Day Weather Forecast

Advertisements
Track Severe Weather on mobile